Paraisopolis, Brazil
Current Conditions -  °F | °C
As of 8:00 PM on Saturday 22 Nov 2014 (Local Time) from SBGW Reporting Station
Light Rain Light Rain  
Wind Chill: 72°   Ceiling: 2000
Heat Index: 72°   Visibility: 3mi
Dew Point: 66°   Wind: 2mph
Humidity: 83%   Direction: 120°ESE
Pressure: NA   Gusts: NA
Location:  22.55°S, 45.78°W
Report Text: SBGW 222200Z 12002KT 5000 -RA BKN020 FEW025TCU BKN080 22/19 Q1016
Loading
Personal Weather Stations






























Interactive Weather Map New forecast layout! Learn more

10-Day Weather Forecast

Advertisements
Track Severe Weather on mobile